Diadema Argentina, Argentina
Current Conditions -  °F | °C
As of 9:00 AM on Wednesday 22 Oct 2014 (Local Time) from SAVC Reporting Station
Clear Clear  
Wind Chill: 61°   Ceiling: Unl
Heat Index: 61°   Visibility: 6mi
Dew Point: 32°   Wind: 23mph
Humidity: 34%   Direction: 270°W
Pressure: 29.83"   Gusts: 39mph
Location:  45.77°S, 67.67°W
Report Text: SAVC 221200Z 27020G34KT CAVOK 16/M00 Q1010
Loading
Personal Weather Stations






























Interactive Weather Map
Tropical Storm Tracking
New forecast layout! Learn more

10-Day Weather Forecast

Advertisements
Track Severe Weather on mobile